createdAt,value
2022-08-10T00:00:57.121Z,6.60
2022-08-10T00:03:23.633Z,6.60
2022-08-10T00:05:52.984Z,8.30
2022-08-10T00:08:24.038Z,7.60
2022-08-10T00:10:56.018Z,7.90
2022-08-10T00:13:24.032Z,8.50
2022-08-10T00:15:54.900Z,9.30
2022-08-10T00:18:34.776Z,9.00
2022-08-10T00:21:07.993Z,9.10
2022-08-10T00:23:37.459Z,9.80
2022-08-10T00:26:05.674Z,10.50
2022-08-10T00:28:32.235Z,8.40
2022-08-10T00:30:59.271Z,7.80
2022-08-10T00:33:26.123Z,7.40
2022-08-10T00:35:52.658Z,8.40
2022-08-10T00:38:19.195Z,8.10
2022-08-10T00:40:46.128Z,8.40
2022-08-10T00:43:12.868Z,8.00
2022-08-10T00:45:39.885Z,7.70
2022-08-10T00:48:06.646Z,8.20
2022-08-10T00:50:33.727Z,8.90
2022-08-10T00:53:00.931Z,7.80
2022-08-10T00:55:27.987Z,8.60
2022-08-10T00:57:55.714Z,8.80
2022-08-10T01:00:24.136Z,8.30
2022-08-10T01:02:51.489Z,8.00
2022-08-10T01:05:19.664Z,7.60
2022-08-10T01:08:10.045Z,8.00
2022-08-10T01:11:01.745Z,7.50
2022-08-10T01:13:40.744Z,7.60
2022-08-10T01:16:20.661Z,7.30
2022-08-10T01:18:54.558Z,6.80
2022-08-10T01:21:57.126Z,6.80
2022-08-10T01:24:37.668Z,7.20
2022-08-10T01:27:20.780Z,6.50
2022-08-10T01:30:04.695Z,6.80
2022-08-10T01:32:37.089Z,6.70
2022-08-10T01:35:39.282Z,7.00
2022-08-10T01:38:11.168Z,6.40
2022-08-10T01:40:44.622Z,6.50
2022-08-10T01:43:15.819Z,6.90
2022-08-10T01:45:46.014Z,7.30
2022-08-10T01:48:28.466Z,8.10
2022-08-10T01:51:04.249Z,7.80
2022-08-10T01:53:40.989Z,7.80
2022-08-10T01:56:14.883Z,7.40
2022-08-10T01:58:46.128Z,7.90
2022-08-10T02:01:16.870Z,7.70
2022-08-10T02:04:04.270Z,7.50
2022-08-10T02:06:37.937Z,7.80
2022-08-10T02:09:07.310Z,8.40
2022-08-10T02:12:05.090Z,7.90
2022-08-10T02:14:33.515Z,7.20
2022-08-10T02:17:59.593Z,7.60
2022-08-10T02:20:05.151Z,9.20
2022-08-10T02:22:38.408Z,8.60
2022-08-10T02:27:57.651Z,8.50
2022-08-10T02:30:26.023Z,8.60
2022-08-10T02:32:54.668Z,8.10
2022-08-10T02:35:23.374Z,8.50
2022-08-10T02:37:57.227Z,8.70
2022-08-10T02:45:13.653Z,8.20
2022-08-10T02:45:20.592Z,8.40
2022-08-10T02:46:46.448Z,7.40
2022-08-10T02:49:21.208Z,7.60
2022-08-10T02:52:07.635Z,7.70
2022-08-10T02:54:42.651Z,7.70
2022-08-10T02:57:16.144Z,7.50
2022-08-10T02:59:49.315Z,8.00
2022-08-10T03:02:42.127Z,7.40
2022-08-10T03:05:14.067Z,8.60
2022-08-10T03:07:49.365Z,7.90
2022-08-10T03:10:21.129Z,7.50
2022-08-10T03:12:51.687Z,7.20
2022-08-10T03:15:21.436Z,7.20
2022-08-10T03:17:58.249Z,7.30
2022-08-10T03:20:40.486Z,7.90
2022-08-10T03:23:22.824Z,8.20
2022-08-10T03:25:54.063Z,7.60
2022-08-10T03:28:28.943Z,7.80
2022-08-10T03:30:59.756Z,7.40
2022-08-10T03:33:32.579Z,7.30
2022-08-10T03:36:43.572Z,7.30
2022-08-10T03:38:50.988Z,7.40
2022-08-10T03:41:35.948Z,7.40
2022-08-10T03:44:06.295Z,7.40
2022-08-10T03:46:37.719Z,7.60
2022-08-10T03:49:05.487Z,7.40
2022-08-10T03:51:34.352Z,7.90
2022-08-10T03:54:07.299Z,9.00
2022-08-10T03:56:37.036Z,9.10
2022-08-10T03:59:11.485Z,9.00
2022-08-10T04:02:44.274Z,8.40
2022-08-10T04:04:33.930Z,8.30
2022-08-10T04:07:03.063Z,7.40
2022-08-10T04:09:54.413Z,7.50
2022-08-10T04:12:20.029Z,6.80
2022-08-10T04:14:50.358Z,6.70
2022-08-10T04:17:57.081Z,6.40
2022-08-10T04:20:19.299Z,5.80
2022-08-10T04:22:51.778Z,5.60
2022-08-10T04:25:20.454Z,5.90
2022-08-10T04:27:48.568Z,4.90
2022-08-10T04:30:16.008Z,5.20
2022-08-10T04:32:47.398Z,5.10
2022-08-10T04:35:18.466Z,5.30
2022-08-10T04:37:50.439Z,5.60
2022-08-10T04:40:29.351Z,6.10
2022-08-10T04:43:01.403Z,5.10
2022-08-10T04:45:48.328Z,5.90
2022-08-10T04:48:42.687Z,4.90
2022-08-10T04:51:19.337Z,5.60
2022-08-10T04:54:05.024Z,6.30
2022-08-10T04:56:38.615Z,6.30
2022-08-10T04:59:10.246Z,5.80
2022-08-10T05:02:22.051Z,5.80
2022-08-10T05:04:33.793Z,5.10
2022-08-10T05:07:09.650Z,5.50
2022-08-10T05:10:01.516Z,5.70
2022-08-10T05:12:28.966Z,5.80
2022-08-10T05:14:55.890Z,5.80
2022-08-10T05:17:23.845Z,5.80
2022-08-10T05:20:03.945Z,6.60
2022-08-10T05:22:41.002Z,6.10
2022-08-10T05:25:10.768Z,5.40
2022-08-10T05:27:38.752Z,5.80
2022-08-10T05:30:07.292Z,6.50
2022-08-10T05:32:56.754Z,5.00
2022-08-10T05:35:22.663Z,5.60
2022-08-10T05:38:12.127Z,5.00
2022-08-10T05:40:40.524Z,5.50
2022-08-10T05:43:09.082Z,5.40
2022-08-10T05:46:17.683Z,4.50
2022-08-10T05:48:41.561Z,4.40
2022-08-10T05:51:10.497Z,4.90
2022-08-10T05:54:02.154Z,4.60
2022-08-10T05:56:26.318Z,4.70
2022-08-10T05:58:53.136Z,5.20
2022-08-10T06:01:24.373Z,4.50
2022-08-10T06:03:57.975Z,4.80
2022-08-10T06:06:28.179Z,3.80
2022-08-10T06:08:56.013Z,4.80
2022-08-10T06:12:27.102Z,4.10
2022-08-10T06:14:32.096Z,4.30
2022-08-10T06:17:00.693Z,3.50
2022-08-10T06:19:27.676Z,4.00
2022-08-10T06:22:01.478Z,3.70
2022-08-10T06:24:30.728Z,3.40
2022-08-10T06:26:58.718Z,3.80
2022-08-10T06:29:30.279Z,3.20
2022-08-10T06:31:59.068Z,2.90
2022-08-10T06:34:29.941Z,3.70
2022-08-10T06:37:01.208Z,3.40
2022-08-10T06:39:36.634Z,3.90
2022-08-10T06:42:17.715Z,3.90
2022-08-10T06:44:55.004Z,3.50
2022-08-10T06:47:29.729Z,3.20
2022-08-10T06:50:08.682Z,3.90
2022-08-10T06:52:37.871Z,3.40
2022-08-10T06:55:08.509Z,3.70
2022-08-10T06:57:38.182Z,3.70
2022-08-10T07:00:07.704Z,4.40
2022-08-10T07:02:43.724Z,3.00
2022-08-10T07:05:16.780Z,3.30
2022-08-10T07:07:46.282Z,3.10
2022-08-10T07:10:18.232Z,3.70
2022-08-10T07:12:47.672Z,3.30
2022-08-10T07:15:16.793Z,3.50
2022-08-10T07:17:45.675Z,3.50
2022-08-10T07:20:17.068Z,4.00
2022-08-10T07:23:08.706Z,2.90
2022-08-10T07:25:41.688Z,3.10
2022-08-10T07:28:09.861Z,3.50
2022-08-10T07:30:40.113Z,3.10
2022-08-10T07:33:09.053Z,3.20
2022-08-10T07:35:43.160Z,2.90
2022-08-10T07:38:21.258Z,3.30
2022-08-10T07:40:50.726Z,2.60
2022-08-10T07:43:21.357Z,2.80
2022-08-10T07:45:49.066Z,2.50
2022-08-10T07:48:26.882Z,2.80
2022-08-10T07:50:58.956Z,2.90
2022-08-10T07:53:38.058Z,2.80
2022-08-10T07:56:16.870Z,2.90
2022-08-10T07:59:02.535Z,2.80
2022-08-10T08:01:34.371Z,2.60
2022-08-10T08:04:10.563Z,2.50
2022-08-10T08:06:41.926Z,3.00
2022-08-10T08:09:10.697Z,3.10
2022-08-10T08:11:40.696Z,2.40
2022-08-10T08:14:08.515Z,2.90
2022-08-10T08:16:41.275Z,2.60
2022-08-10T08:19:26.851Z,2.20
2022-08-10T08:24:09.123Z,2.50
2022-08-10T08:24:44.480Z,2.20
2022-08-10T08:27:16.182Z,2.90
2022-08-10T08:29:46.567Z,3.10
2022-08-10T08:32:17.166Z,3.40
2022-08-10T08:34:44.726Z,3.00
2022-08-10T08:38:31.279Z,2.80
2022-08-10T08:40:05.663Z,2.50
2022-08-10T08:43:05.281Z,2.90
2022-08-10T08:45:54.096Z,2.70
2022-08-10T08:49:05.091Z,2.50
2022-08-10T08:52:18.620Z,2.00
2022-08-10T08:55:02.739Z,2.30
2022-08-10T08:57:50.425Z,1.90
2022-08-10T09:00:55.506Z,2.50
2022-08-10T09:03:37.582Z,2.40
2022-08-10T09:06:22.542Z,1.80
2022-08-10T09:09:34.478Z,2.10
2022-08-10T09:12:40.314Z,1.70
2022-08-10T09:15:39.666Z,2.00
2022-08-10T09:18:07.604Z,2.20
2022-08-10T09:21:05.984Z,2.00
2022-08-10T09:24:04.495Z,2.30
2022-08-10T09:26:45.138Z,2.70
2022-08-10T09:29:17.869Z,2.40
2022-08-10T09:36:13.563Z,2.20
2022-08-10T09:36:23.160Z,2.00
2022-08-10T09:38:12.300Z,1.70
2022-08-10T09:40:59.453Z,1.70
2022-08-10T09:43:50.763Z,1.80
2022-08-10T09:46:33.290Z,2.00
2022-08-10T09:49:54.500Z,2.00
2022-08-10T09:52:31.280Z,1.80
2022-08-10T09:56:18.966Z,1.80
2022-08-10T10:01:57.901Z,1.50
2022-08-10T10:04:15.856Z,1.50
2022-08-10T10:06:58.814Z,2.00
2022-08-10T10:09:44.097Z,2.10
2022-08-10T10:12:39.375Z,1.80
2022-08-10T10:15:37.123Z,2.00
2022-08-10T10:18:29.521Z,2.00
2022-08-10T10:21:54.534Z,2.00
2022-08-10T10:24:56.359Z,1.90
2022-08-10T10:27:37.600Z,1.80
2022-08-10T10:30:27.248Z,2.30
2022-08-10T10:33:13.331Z,2.10
2022-08-10T10:35:51.674Z,1.80
2022-08-10T10:38:21.565Z,2.40
2022-08-10T10:41:19.629Z,2.30
2022-08-10T10:44:21.164Z,2.30
2022-08-10T10:47:09.553Z,1.70
2022-08-10T10:49:49.298Z,1.90
2022-08-10T10:52:45.017Z,2.10
2022-08-10T10:55:18.449Z,1.60
2022-08-10T10:58:20.671Z,1.90
2022-08-10T11:01:01.614Z,2.00
2022-08-10T11:03:50.233Z,2.00
2022-08-10T11:06:52.038Z,1.90
2022-08-10T11:10:09.500Z,1.90
2022-08-10T11:12:45.701Z,1.90
2022-08-10T11:15:29.868Z,1.60
2022-08-10T11:18:08.698Z,1.80
2022-08-10T11:20:44.979Z,1.50
2022-08-10T11:23:33.467Z,2.20
2022-08-10T11:26:25.578Z,1.70
2022-08-10T11:29:20.052Z,1.80
2022-08-10T11:32:20.529Z,1.80
2022-08-10T11:35:36.898Z,1.60
2022-08-10T11:38:28.432Z,1.40
2022-08-10T11:42:05.739Z,1.50
2022-08-10T11:44:18.324Z,1.60
2022-08-10T11:47:00.992Z,1.80
2022-08-10T11:49:37.216Z,1.50
2022-08-10T11:52:10.562Z,1.60
2022-08-10T11:54:50.794Z,1.90
2022-08-10T11:57:19.546Z,1.40
2022-08-10T11:59:57.959Z,1.60
2022-08-10T12:02:44.171Z,1.40
2022-08-10T12:05:23.974Z,1.40
2022-08-10T12:10:01.775Z,1.40
2022-08-10T12:10:58.917Z,1.50
2022-08-10T12:13:30.557Z,1.30
2022-08-10T12:16:14.757Z,1.20
2022-08-10T12:19:01.464Z,1.20
2022-08-10T12:21:40.027Z,1.60
2022-08-10T12:24:32.318Z,1.50
2022-08-10T12:27:07.493Z,1.30
2022-08-10T12:29:51.839Z,2.00
2022-08-10T12:32:30.865Z,1.40
2022-08-10T12:35:27.396Z,1.70
2022-08-10T12:38:49.834Z,1.60
2022-08-10T12:41:43.146Z,1.70
2022-08-10T12:44:14.439Z,4.30
2022-08-10T12:47:05.757Z,1.70
2022-08-10T12:50:13.680Z,1.80
2022-08-10T12:53:14.480Z,1.30
2022-08-10T12:55:43.709Z,1.70
2022-08-10T12:58:59.558Z,1.80
2022-08-10T13:01:16.087Z,1.30
2022-08-10T13:04:21.423Z,1.50
2022-08-10T13:06:46.898Z,1.70
2022-08-10T13:09:56.127Z,1.10
2022-08-10T13:12:39.015Z,1.30
2022-08-10T13:15:45.593Z,1.50
2022-08-10T13:18:06.631Z,2.50
2022-08-10T13:20:52.253Z,1.40
2022-08-10T13:25:51.681Z,1.40
2022-08-10T13:28:45.654Z,1.40
2022-08-10T13:31:19.226Z,1.40
2022-08-10T13:36:41.163Z,1.40
2022-08-10T13:41:40.372Z,1.50
2022-08-10T13:44:10.989Z,1.80
2022-08-10T13:46:41.600Z,1.80
2022-08-10T13:49:11.126Z,1.70
2022-08-10T13:51:56.726Z,1.60
2022-08-10T13:54:36.158Z,1.50
2022-08-10T13:57:04.169Z,2.00
2022-08-10T14:00:33.797Z,1.50
2022-08-10T14:02:28.115Z,1.40
2022-08-10T14:04:57.674Z,1.30
2022-08-10T14:07:27.569Z,1.30
2022-08-10T14:10:06.580Z,1.30
2022-08-10T14:12:40.950Z,1.20
2022-08-10T14:15:13.955Z,1.30
2022-08-10T14:17:44.939Z,1.50
2022-08-10T14:20:19.277Z,1.30
2022-08-10T14:22:48.197Z,1.30
2022-08-10T14:25:15.970Z,1.20
2022-08-10T14:28:01.954Z,1.50
2022-08-10T14:30:32.406Z,1.50
2022-08-10T14:33:03.783Z,1.50
2022-08-10T14:36:18.537Z,1.90
2022-08-10T14:38:31.542Z,1.50
2022-08-10T14:41:01.159Z,1.40
2022-08-10T14:43:53.679Z,1.70
2022-08-10T14:46:23.583Z,1.50
2022-08-10T14:48:52.996Z,1.50
2022-08-10T14:51:25.731Z,1.40
2022-08-10T14:53:56.427Z,1.60
2022-08-10T14:56:30.447Z,1.20
2022-08-10T14:59:06.700Z,1.70
2022-08-10T15:02:00.963Z,1.50
2022-08-10T15:04:29.217Z,1.50
2022-08-10T15:07:23.057Z,1.50
2022-08-10T15:10:00.944Z,1.40
2022-08-10T15:12:35.466Z,1.40
2022-08-10T15:15:05.854Z,1.10
2022-08-10T15:17:36.592Z,1.60
2022-08-10T15:20:20.613Z,1.40
2022-08-10T15:22:52.236Z,1.30
2022-08-10T15:25:25.057Z,1.60
2022-08-10T15:30:30.670Z,1.40
2022-08-10T15:33:59.455Z,1.30
2022-08-10T15:37:02.453Z,1.30
2022-08-10T15:40:21.697Z,1.60
2022-08-10T15:42:54.341Z,1.60
2022-08-10T15:45:22.856Z,1.50
2022-08-10T15:48:02.476Z,1.20
2022-08-10T15:50:33.885Z,1.40
2022-08-10T15:53:08.945Z,1.30
2022-08-10T15:55:58.263Z,1.60
2022-08-10T15:58:39.860Z,1.30
2022-08-10T16:02:04.594Z,1.40
2022-08-10T16:04:34.558Z,1.20
2022-08-10T16:07:11.834Z,1.30
2022-08-10T16:10:11.033Z,1.40
2022-08-10T16:12:42.714Z,1.40
2022-08-10T16:15:17.810Z,1.60
2022-08-10T16:17:55.778Z,1.90
2022-08-10T16:20:53.552Z,3.30
2022-08-10T16:23:25.684Z,1.70
2022-08-10T16:26:13.499Z,1.80
2022-08-10T16:28:54.645Z,1.80
2022-08-10T16:31:25.066Z,1.60
2022-08-10T16:33:55.499Z,1.80
2022-08-10T16:36:31.581Z,1.60
2022-08-10T16:38:59.298Z,1.40
2022-08-10T16:42:03.456Z,1.30
2022-08-10T16:44:18.084Z,1.40
2022-08-10T16:46:47.541Z,1.40
2022-08-10T16:49:17.415Z,1.40
2022-08-10T16:52:08.673Z,1.40
2022-08-10T16:54:39.202Z,1.40
2022-08-10T16:57:10.866Z,1.60
2022-08-10T16:59:39.925Z,1.60
2022-08-10T17:02:11.097Z,1.60
2022-08-10T17:04:43.626Z,1.30
2022-08-10T17:07:15.600Z,1.00
2022-08-10T17:09:48.826Z,1.30
2022-08-10T17:12:19.817Z,1.40
2022-08-10T17:14:52.482Z,0.90
2022-08-10T17:17:45.925Z,1.30
2022-08-10T17:20:30.748Z,1.30
2022-08-10T17:23:10.421Z,1.20
2022-08-10T17:25:48.795Z,1.10
2022-08-10T17:28:34.826Z,1.20
2022-08-10T17:31:23.610Z,1.50
2022-08-10T17:34:02.532Z,1.30
2022-08-10T17:36:34.749Z,1.70
2022-08-10T17:39:05.165Z,1.70
2022-08-10T17:41:36.513Z,1.60
2022-08-10T17:44:04.847Z,1.80
2022-08-10T17:46:37.933Z,1.90
2022-08-10T17:49:11.802Z,1.50
2022-08-10T17:51:41.952Z,1.60
2022-08-10T17:54:21.369Z,1.90
2022-08-10T17:56:52.161Z,1.90
2022-08-10T17:59:24.130Z,1.70
2022-08-10T18:02:01.649Z,1.90
2022-08-10T18:04:41.469Z,1.90
2022-08-10T18:07:12.986Z,1.70
2022-08-10T18:09:55.520Z,1.60
2022-08-10T18:12:34.710Z,2.10
2022-08-10T18:15:13.395Z,2.10
2022-08-10T18:17:45.708Z,2.20
2022-08-10T18:20:14.337Z,2.30
2022-08-10T18:22:48.450Z,2.30
2022-08-10T18:25:22.428Z,2.10
2022-08-10T18:28:03.751Z,2.30
2022-08-10T18:30:36.237Z,2.30
2022-08-10T18:33:08.843Z,2.40
2022-08-10T18:35:39.120Z,2.90
2022-08-10T18:38:11.589Z,3.10
2022-08-10T18:40:50.721Z,3.20
2022-08-10T18:44:10.344Z,3.40
2022-08-10T18:46:12.492Z,3.40
2022-08-10T18:48:49.500Z,3.90
2022-08-10T18:51:24.823Z,2.60
2022-08-10T18:54:05.180Z,3.70
2022-08-10T18:56:39.453Z,3.90
2022-08-10T18:59:20.809Z,3.40
2022-08-10T19:02:22.162Z,3.50
2022-08-10T19:05:30.148Z,3.70
2022-08-10T19:08:30.751Z,3.80
2022-08-10T19:11:28.360Z,4.30
2022-08-10T19:14:03.181Z,4.40
2022-08-10T19:16:53.753Z,4.10
2022-08-10T19:19:33.597Z,4.10
2022-08-10T19:22:07.726Z,4.50
2022-08-10T19:24:57.547Z,3.80
2022-08-10T19:27:51.741Z,3.60
2022-08-10T19:30:28.586Z,3.50
2022-08-10T19:33:04.597Z,3.50
2022-08-10T19:36:03.508Z,3.90
2022-08-10T19:38:51.277Z,3.40
2022-08-10T19:41:44.694Z,2.90
2022-08-10T19:44:31.679Z,2.80
2022-08-10T19:47:25.819Z,2.90
2022-08-10T19:53:24.978Z,2.60
2022-08-10T19:56:18.531Z,3.00
2022-08-10T19:59:03.266Z,3.00
2022-08-10T20:01:54.394Z,2.30
2022-08-10T20:04:35.997Z,2.80
2022-08-10T20:07:27.217Z,3.10
2022-08-10T20:10:00.216Z,2.80
2022-08-10T20:12:50.639Z,3.00
2022-08-10T20:15:42.256Z,3.40
2022-08-10T20:18:34.052Z,4.20
2022-08-10T20:21:25.020Z,4.40
2022-08-10T20:23:57.766Z,5.10
2022-08-10T20:26:28.214Z,5.30
2022-08-10T20:29:04.330Z,5.00
2022-08-10T20:31:45.435Z,5.90
2022-08-10T20:34:20.839Z,5.90
2022-08-10T20:37:06.257Z,6.70
2022-08-10T20:39:56.159Z,6.50
2022-08-10T20:42:31.558Z,6.70
2022-08-10T20:45:19.606Z,5.60
2022-08-10T20:48:25.547Z,5.80
2022-08-10T20:51:13.483Z,6.10
2022-08-10T20:53:51.315Z,5.90
2022-08-10T20:56:47.805Z,5.20
2022-08-10T21:00:04.606Z,5.10
2022-08-10T21:02:48.974Z,5.70
2022-08-10T21:05:34.364Z,5.00
2022-08-10T21:08:17.279Z,4.50
2022-08-10T21:11:06.442Z,5.00
2022-08-10T21:14:11.292Z,5.10
2022-08-10T21:17:06.715Z,5.10
2022-08-10T21:19:59.368Z,5.20
2022-08-10T21:22:34.459Z,5.20
2022-08-10T21:25:29.451Z,4.90
2022-08-10T21:28:29.150Z,5.40
2022-08-10T21:31:36.298Z,4.80
2022-08-10T21:34:37.369Z,5.20
2022-08-10T21:37:19.962Z,4.90
2022-08-10T21:40:05.989Z,5.30
2022-08-10T21:43:32.170Z,5.10
2022-08-10T21:46:59.158Z,5.40
2022-08-10T21:50:27.293Z,4.80
2022-08-10T21:53:44.633Z,7.50
2022-08-10T21:56:47.732Z,5.90
2022-08-10T21:59:45.027Z,5.70
2022-08-10T22:02:49.765Z,6.40
2022-08-10T22:05:48.472Z,5.70
2022-08-10T22:08:38.441Z,6.30
2022-08-10T22:11:29.257Z,5.60
2022-08-10T22:14:15.446Z,6.30
2022-08-10T22:18:03.294Z,6.20
2022-08-10T22:20:35.841Z,6.60
2022-08-10T22:24:16.996Z,6.00
2022-08-10T22:27:46.614Z,5.90
2022-08-10T22:30:28.037Z,5.90
2022-08-10T22:33:37.689Z,5.80
2022-08-10T22:36:56.868Z,5.40
2022-08-10T22:40:12.101Z,5.40
2022-08-10T22:43:11.132Z,5.10
2022-08-10T22:46:08.132Z,5.60
2022-08-10T22:48:59.176Z,6.30
2022-08-10T22:51:36.106Z,5.10
2022-08-10T22:54:46.204Z,5.90
2022-08-10T22:57:36.661Z,5.70
2022-08-10T23:00:31.225Z,5.60
2022-08-10T23:03:10.765Z,5.80
2022-08-10T23:05:50.360Z,5.60
2022-08-10T23:08:33.798Z,5.80
2022-08-10T23:11:07.655Z,5.70
2022-08-10T23:13:41.329Z,6.20
2022-08-10T23:16:33.138Z,6.20
2022-08-10T23:19:11.569Z,6.00
2022-08-10T23:22:03.140Z,5.90
2022-08-10T23:24:44.481Z,5.70
2022-08-10T23:27:37.392Z,6.30
2022-08-10T23:30:11.154Z,6.00
2022-08-10T23:32:51.393Z,5.70
2022-08-10T23:36:30.006Z,6.60
2022-08-10T23:38:16.620Z,5.60
2022-08-10T23:40:46.970Z,5.80
2022-08-10T23:43:53.345Z,5.50
2022-08-10T23:46:21.667Z,5.90
2022-08-10T23:48:53.772Z,6.00
2022-08-10T23:51:54.888Z,5.60
2022-08-10T23:54:25.820Z,5.30
2022-08-10T23:57:00.991Z,5.10
2022-08-10T23:59:31.679Z,6.10
